createdAt,value
2023-01-20T00:02:08.939Z,443.26
2023-01-20T00:07:16.141Z,442.87
2023-01-20T00:12:23.350Z,442.38
2023-01-20T00:17:30.566Z,441.89
2023-01-20T00:22:37.762Z,441.68
2023-01-20T00:27:44.958Z,441.55
2023-01-20T00:32:52.376Z,441.81
2023-01-20T00:37:59.622Z,441.21
2023-01-20T00:43:06.785Z,440.48
2023-01-20T00:48:13.997Z,440.17
2023-01-20T00:53:21.228Z,440.29
2023-01-20T00:58:28.456Z,439.36
2023-01-20T01:03:35.647Z,439.52
2023-01-20T01:08:42.937Z,438.42
2023-01-20T01:13:50.100Z,438.35
2023-01-20T01:18:57.324Z,438.12
2023-01-20T01:24:04.533Z,437.04
2023-01-20T01:29:11.734Z,436.73
2023-01-20T01:34:18.952Z,436.34
2023-01-20T01:39:26.166Z,435.76
2023-01-20T01:44:33.350Z,435.78
2023-01-20T01:49:40.552Z,435.38
2023-01-20T01:54:47.756Z,435.04
2023-01-20T01:59:54.963Z,434.69
2023-01-20T02:05:02.163Z,434.98
2023-01-20T02:10:09.376Z,434.69
2023-01-20T02:15:16.873Z,434.03
2023-01-20T02:20:23.861Z,434.21
2023-01-20T02:25:31.090Z,434.39
2023-01-20T02:30:38.279Z,434.14
2023-01-20T02:35:45.403Z,433.75
2023-01-20T02:40:52.612Z,432.90
2023-01-20T02:45:59.941Z,432.45
2023-01-20T02:51:06.975Z,432.31
2023-01-20T02:56:14.202Z,431.59
2023-01-20T03:01:21.438Z,431.70
2023-01-20T03:06:28.554Z,431.01
2023-01-20T03:11:36.319Z,431.22
2023-01-20T03:16:43.140Z,430.48
2023-01-20T03:21:50.233Z,430.06
2023-01-20T03:26:57.474Z,430.02
2023-01-20T03:32:04.626Z,429.50
2023-01-20T03:37:11.830Z,429.70
2023-01-20T03:42:19.121Z,429.34
2023-01-20T03:47:26.237Z,429.28
2023-01-20T03:52:47.126Z,428.22
2023-01-20T03:57:40.675Z,427.94
2023-01-20T04:02:47.867Z,428.13
2023-01-20T04:07:55.057Z,427.50
2023-01-20T04:13:05.490Z,426.85
2023-01-20T04:18:10.112Z,426.85
2023-01-20T04:23:17.355Z,426.66
2023-01-20T04:28:24.650Z,426.49
2023-01-20T04:33:31.856Z,425.37
2023-01-20T04:38:39.068Z,425.01
2023-01-20T04:43:46.235Z,424.93
2023-01-20T04:48:53.427Z,424.24
2023-01-20T04:54:00.613Z,423.39
2023-01-20T04:59:07.840Z,422.76
2023-01-20T05:04:15.014Z,422.57
2023-01-20T05:09:22.310Z,421.48
2023-01-20T05:14:29.556Z,421.09
2023-01-20T05:19:36.987Z,420.02
2023-01-20T05:24:44.358Z,419.16
2023-01-20T05:29:51.587Z,417.98
2023-01-20T05:34:58.734Z,417.77
2023-01-20T05:40:05.973Z,417.19
2023-01-20T05:45:13.539Z,416.47
2023-01-20T05:50:20.401Z,415.57
2023-01-20T05:55:27.652Z,414.84
2023-01-20T06:00:34.803Z,414.62
2023-01-20T06:05:41.995Z,414.32
2023-01-20T06:10:50.568Z,413.61
2023-01-20T06:15:56.454Z,413.30
2023-01-20T06:21:03.501Z,412.96
2023-01-20T06:26:10.698Z,412.26
2023-01-20T06:31:18.096Z,411.72
2023-01-20T06:36:25.118Z,410.74
2023-01-20T06:41:32.327Z,410.40
2023-01-20T06:46:39.560Z,409.94
2023-01-20T06:51:46.728Z,409.12
2023-01-20T06:56:53.933Z,408.65
2023-01-20T07:02:01.312Z,408.06
2023-01-20T07:07:08.503Z,407.64
2023-01-20T07:12:15.651Z,406.88
2023-01-20T07:17:22.905Z,406.08
2023-01-20T07:22:30.080Z,405.35
2023-01-20T07:27:37.287Z,404.05
2023-01-20T07:32:44.522Z,403.92
2023-01-20T07:37:51.689Z,403.27
2023-01-20T07:42:58.946Z,402.92
2023-01-20T07:48:06.232Z,401.69
2023-01-20T07:53:13.403Z,400.62
2023-01-20T07:58:20.611Z,400.06
2023-01-20T08:03:27.873Z,398.93
2023-01-20T08:08:35.335Z,399.21
2023-01-20T08:13:42.528Z,398.51
2023-01-20T08:18:49.807Z,397.83
2023-01-20T08:23:56.929Z,397.28
2023-01-20T08:29:04.162Z,396.57
2023-01-20T08:34:11.359Z,396.22
2023-01-20T08:39:18.522Z,395.83
2023-01-20T08:44:25.735Z,394.95
2023-01-20T08:49:33.045Z,394.57
2023-01-20T08:54:40.183Z,393.61
2023-01-20T08:59:47.387Z,393.25
2023-01-20T09:04:54.607Z,392.70
2023-01-20T09:10:01.820Z,391.88
2023-01-20T09:15:09.036Z,391.09
2023-01-20T09:20:16.319Z,390.56
2023-01-20T09:25:23.511Z,390.52
2023-01-20T09:30:30.701Z,390.33
2023-01-20T09:35:38.017Z,389.99
2023-01-20T09:40:45.194Z,389.37
2023-01-20T09:45:52.452Z,388.47
2023-01-20T09:50:59.686Z,388.23
2023-01-20T09:56:08.500Z,388.65
2023-01-20T10:01:14.125Z,387.88
2023-01-20T10:06:21.265Z,387.50
2023-01-20T10:11:28.456Z,387.39
2023-01-20T10:16:35.656Z,387.27
2023-01-20T10:21:42.910Z,386.94
2023-01-20T10:26:50.055Z,386.54
2023-01-20T10:31:57.224Z,386.36
2023-01-20T10:37:04.522Z,387.03
2023-01-20T10:42:11.670Z,387.00
2023-01-20T10:47:18.919Z,386.58
2023-01-20T10:52:26.213Z,386.46
2023-01-20T10:57:33.458Z,386.27
2023-01-20T11:02:40.727Z,386.10
2023-01-20T11:07:47.927Z,386.25
2023-01-20T11:12:55.108Z,385.59
2023-01-20T11:18:02.319Z,385.08
2023-01-20T11:23:09.602Z,384.51
2023-01-20T11:28:16.758Z,384.80
2023-01-20T11:33:24.158Z,384.86
2023-01-20T11:38:31.259Z,384.49
2023-01-20T11:43:38.389Z,384.39
2023-01-20T11:48:45.548Z,384.11
2023-01-20T11:53:52.776Z,384.36
2023-01-20T11:59:00.000Z,384.43
2023-01-20T12:04:07.338Z,384.08
2023-01-20T12:09:14.493Z,383.98
2023-01-20T12:14:21.685Z,383.45
2023-01-20T12:19:28.846Z,384.07
2023-01-20T12:24:42.912Z,383.74
2023-01-20T12:29:43.199Z,383.69
2023-01-20T12:34:50.383Z,383.69
2023-01-20T12:39:57.600Z,383.25
2023-01-20T12:45:04.757Z,383.13
2023-01-20T12:50:12.124Z,382.17
2023-01-20T12:55:19.450Z,381.64
2023-01-20T13:00:26.630Z,381.45
2023-01-20T13:05:33.857Z,382.36
2023-01-20T13:10:41.075Z,382.33
2023-01-20T13:15:48.221Z,382.63
2023-01-20T13:20:55.429Z,382.34
2023-01-20T13:26:02.665Z,382.48
2023-01-20T13:31:09.937Z,381.89
2023-01-20T13:36:17.075Z,381.55
2023-01-20T13:41:24.254Z,381.22
2023-01-20T13:46:31.413Z,381.03
2023-01-20T13:51:38.644Z,380.85
2023-01-20T13:56:45.896Z,380.61
2023-01-20T14:01:53.041Z,380.20
2023-01-20T14:07:00.727Z,380.34
2023-01-20T14:12:07.954Z,380.25
2023-01-20T14:17:15.170Z,379.74
2023-01-20T14:22:22.383Z,379.47
2023-01-20T14:27:29.829Z,378.95
2023-01-20T14:32:36.877Z,378.19
2023-01-20T14:37:44.087Z,377.61
2023-01-20T14:42:51.343Z,377.88
2023-01-20T14:47:58.522Z,377.51
2023-01-20T14:53:05.718Z,376.74
2023-01-20T14:58:12.944Z,376.58
2023-01-20T15:03:20.144Z,376.09
2023-01-20T15:08:27.306Z,375.68
2023-01-20T15:13:37.550Z,375.15
2023-01-20T15:18:41.724Z,374.47
2023-01-20T15:23:48.886Z,373.90
2023-01-20T15:28:56.162Z,373.12
2023-01-20T15:34:03.352Z,372.76
2023-01-20T15:39:10.581Z,372.49
2023-01-20T15:44:17.744Z,372.32
2023-01-20T15:49:24.960Z,371.89
2023-01-20T15:54:32.183Z,371.43
2023-01-20T15:59:39.441Z,371.24
2023-01-20T16:04:46.581Z,370.46
2023-01-20T16:09:53.770Z,370.48
2023-01-20T16:15:00.971Z,369.86
2023-01-20T16:20:08.176Z,369.81
2023-01-20T16:25:15.438Z,369.61
2023-01-20T16:30:22.747Z,369.07
2023-01-20T16:35:30.206Z,368.77
2023-01-20T16:40:37.515Z,368.67
2023-01-20T16:45:44.808Z,368.28
2023-01-20T16:50:51.948Z,367.75
2023-01-20T16:55:59.146Z,367.83
2023-01-20T17:01:06.434Z,367.27
2023-01-20T17:06:14.983Z,367.18
2023-01-20T17:11:20.937Z,366.81
2023-01-20T17:16:28.649Z,366.79
2023-01-20T17:21:36.328Z,366.82
2023-01-20T17:26:43.596Z,366.58
2023-01-20T17:31:50.903Z,366.42
2023-01-20T17:36:58.025Z,366.06
2023-01-20T17:42:05.244Z,365.62
2023-01-20T17:47:12.595Z,365.66
2023-01-20T17:52:19.754Z,365.56
2023-01-20T17:57:27.248Z,364.95
2023-01-20T18:02:34.299Z,364.85
2023-01-20T18:07:41.427Z,364.33
2023-01-20T18:12:48.839Z,364.30
2023-01-20T18:17:56.290Z,363.58
2023-01-20T18:23:03.859Z,363.34
2023-01-20T18:28:12.279Z,363.66
2023-01-20T18:33:19.855Z,364.03
2023-01-20T18:38:27.189Z,363.74
2023-01-20T18:43:34.672Z,364.16
2023-01-20T18:48:42.182Z,363.72
2023-01-20T18:53:49.521Z,363.11
2023-01-20T18:58:57.056Z,363.60
2023-01-20T19:04:04.816Z,363.27
2023-01-20T19:09:12.487Z,362.91
2023-01-20T19:14:20.135Z,363.06
2023-01-20T19:19:27.744Z,362.79
2023-01-20T19:24:35.041Z,362.71
2023-01-20T19:29:42.538Z,362.60
2023-01-20T19:34:50.179Z,362.62
2023-01-20T19:39:57.869Z,362.79
2023-01-20T19:45:05.996Z,363.13
2023-01-20T19:50:13.478Z,363.22
2023-01-20T19:55:20.781Z,362.95
2023-01-20T20:00:28.346Z,362.67
2023-01-20T20:05:36.001Z,362.96
2023-01-20T20:10:43.556Z,362.50
2023-01-20T20:15:51.198Z,362.41
2023-01-20T20:20:58.924Z,362.00
2023-01-20T20:26:06.610Z,361.67
2023-01-20T20:31:14.311Z,361.31
2023-01-20T20:36:21.856Z,361.13
2023-01-20T20:41:29.649Z,360.79
2023-01-20T20:46:37.213Z,360.60
2023-01-20T20:51:44.804Z,360.55
2023-01-20T20:56:52.389Z,359.98
2023-01-20T21:02:00.047Z,360.29
2023-01-20T21:07:07.643Z,360.28
2023-01-20T21:12:15.131Z,360.52
2023-01-20T21:17:22.748Z,360.31
2023-01-20T21:22:30.407Z,360.39
2023-01-20T21:27:37.719Z,360.41
2023-01-20T21:32:45.083Z,360.43
2023-01-20T21:37:52.715Z,360.38
2023-01-20T21:43:00.307Z,360.39
2023-01-20T21:48:07.683Z,360.09
2023-01-20T21:53:14.961Z,359.43
2023-01-20T21:58:22.151Z,359.86
2023-01-20T22:03:29.379Z,359.60
2023-01-20T22:08:36.570Z,359.76
2023-01-20T22:13:43.772Z,359.91
2023-01-20T22:18:50.962Z,359.89
2023-01-20T22:23:58.474Z,359.32
2023-01-20T22:29:05.720Z,359.01
2023-01-20T22:34:12.905Z,358.71
2023-01-20T22:39:20.126Z,359.15
2023-01-20T22:44:27.264Z,358.98
2023-01-20T22:49:34.474Z,358.99
2023-01-20T22:54:41.694Z,358.33
2023-01-20T22:59:48.894Z,358.86
2023-01-20T23:04:56.111Z,358.84
2023-01-20T23:10:03.360Z,359.09
2023-01-20T23:15:10.637Z,358.85
2023-01-20T23:20:18.322Z,358.65
2023-01-20T23:25:25.108Z,358.94
2023-01-20T23:30:32.373Z,359.61
2023-01-20T23:35:39.613Z,359.16
2023-01-20T23:40:46.779Z,359.85
2023-01-20T23:45:53.952Z,359.79
2023-01-20T23:51:01.159Z,359.62
2023-01-20T23:56:08.347Z,359.46
